Airfield :
LOGIN :

Register | Disclaimer

   EN    FR    IT 

 










Legend :    VFR   Marginal VFR   IFR   Intensive IFR   Very Intensive IFR
Visi :
Ceiling :
>= 8 km
>= 3000ft
5 to 8 km
1000 to 3000 ft
1500m to 5 km
500 to 1000 ft
800 to 1500m
200 to 500 ft
< 800m
< 200 ft
Symbols :   Thunderstorms  Fog  Heavy snow  Heavy precipitations  Wind > 20 kt
SIGMETs :     Misc.  Thunderstorms  Icing  Turbulence  Mountain Waves  Volcanic Ashes







- Airport Elevation : 410 ft
- IATA code : AVB


LIPA - Aviano AB Pordenone

CURRENT METAR :
  • 241455Z 17004KT 9999 FEW050 20/11 Q1022 RMK BKN SCT170 VIS MIN 9999 WIND THR05 13003KT WIND THR23 20006KT A3020 BLU

EXPIRED METARs :
  • 241355Z 20005KT 9999 SCT040 20/10 Q1022 RMK BKN BKN170 VIS MIN 9000N WIND THR05 21003KT WIND THR23 00000KT A3020 BLU
  • 241255Z 20004KT 9999 FEW025 SCT040 19/11 Q1023 RMK BKN BKN170 VIS MIN 9000N WIND THR05 18003KT WIND THR23 20006KT A3021 BLU

TAF TAF LIPA
Valid from the 24 at 15:00 until the 25 at 00:00 UTC


241400Z 2415/2424 VRB03KT 8000 FEW025 BKN040
No reported NOTAMs for that airfield.



MET'MAP, your aeronautical weather chart ! - Copyright ORBIFLY December 2007 - Disclaimer

ORBIFLY MET'MAP TEAM :

Programming & Development : Alexandra Zaïnal
Concept & Development : Baudouin d'Aumeries
Co-Development & Prog : Marc-Olivier Méhu
Technical & hardware support : Manuel Goepfert

Contact : metmap@orbifly.com




SOURCES & CREDITS :

   NOAA